sensor_id;sensor_type;location;lat;lon;timestamp;pressure;altitude;pressure_sealevel;temperature;humidity
38786;BME280;24535;45.508;12.252;2022-07-23T00:00:33;101371.97;;;31.82;44.17
38786;BME280;24535;45.508;12.252;2022-07-23T00:02:59;101368.41;;;31.81;44.91
38786;BME280;24535;45.508;12.252;2022-07-23T00:05:24;101372.16;;;31.87;44.69
38786;BME280;24535;45.508;12.252;2022-07-23T00:07:50;101362.72;;;31.83;44.70
38786;BME280;24535;45.508;12.252;2022-07-23T00:10:15;101367.59;;;31.81;45.30
38786;BME280;24535;45.508;12.252;2022-07-23T00:12:44;101361.28;;;31.80;44.88
38786;BME280;24535;45.508;12.252;2022-07-23T00:15:10;101362.59;;;31.77;44.99
38786;BME280;24535;45.508;12.252;2022-07-23T00:18:14;101360.84;;;31.83;45.45
38786;BME280;24535;45.508;12.252;2022-07-23T00:20:51;101352.06;;;31.81;45.47
38786;BME280;24535;45.508;12.252;2022-07-23T00:23:17;101347.13;;;31.71;45.60
38786;BME280;24535;45.508;12.252;2022-07-23T00:25:43;101344.66;;;31.70;45.64
38786;BME280;24535;45.508;12.252;2022-07-23T00:28:13;101336.34;;;31.65;46.05
38786;BME280;24535;45.508;12.252;2022-07-23T00:30:38;101330.72;;;31.60;45.98
38786;BME280;24535;45.508;12.252;2022-07-23T00:33:06;101335.13;;;31.61;46.58
38786;BME280;24535;45.508;12.252;2022-07-23T00:35:37;101320.13;;;31.51;47.01
38786;BME280;24535;45.508;12.252;2022-07-23T00:38:09;101323.53;;;31.47;46.89
38786;BME280;24535;45.508;12.252;2022-07-23T00:40:36;101318.56;;;31.44;46.94
38786;BME280;24535;45.508;12.252;2022-07-23T00:43:05;101315.44;;;31.40;47.29
38786;BME280;24535;45.508;12.252;2022-07-23T00:45:30;101321.56;;;31.36;47.38
38786;BME280;24535;45.508;12.252;2022-07-23T00:47:57;101318.47;;;31.32;47.61
38786;BME280;24535;45.508;12.252;2022-07-23T00:50:25;101309.44;;;31.32;48.02
38786;BME280;24535;45.508;12.252;2022-07-23T00:52:52;101315.97;;;31.31;47.90
38786;BME280;24535;45.508;12.252;2022-07-23T00:55:17;101314.50;;;31.28;48.31
38786;BME280;24535;45.508;12.252;2022-07-23T00:57:43;101314.50;;;31.28;48.15
38786;BME280;24535;45.508;12.252;2022-07-23T01:00:13;101314.72;;;31.26;48.44
38786;BME280;24535;45.508;12.252;2022-07-23T01:02:39;101314.31;;;31.23;48.02
38786;BME280;24535;45.508;12.252;2022-07-23T01:08:27;101321.50;;;31.17;48.21
38786;BME280;24535;45.508;12.252;2022-07-23T01:10:52;101315.44;;;31.15;48.07
38786;BME280;24535;45.508;12.252;2022-07-23T01:13:18;101323.16;;;31.18;48.16
38786;BME280;24535;45.508;12.252;2022-07-23T01:15:47;101316.66;;;31.19;47.88
38786;BME280;24535;45.508;12.252;2022-07-23T01:18:12;101318.78;;;31.17;47.84
38786;BME280;24535;45.508;12.252;2022-07-23T01:20:38;101314.56;;;31.21;47.98
38786;BME280;24535;45.508;12.252;2022-07-23T01:23:07;101317.88;;;31.23;48.10
38786;BME280;24535;45.508;12.252;2022-07-23T01:25:32;101320.44;;;31.18;47.90
38786;BME280;24535;45.508;12.252;2022-07-23T01:27:58;101317.13;;;31.16;47.48
38786;BME280;24535;45.508;12.252;2022-07-23T01:30:23;101319.19;;;31.21;47.35
38786;BME280;24535;45.508;12.252;2022-07-23T01:32:49;101322.72;;;31.21;47.31
38786;BME280;24535;45.508;12.252;2022-07-23T01:35:14;101316.22;;;31.22;47.53
38786;BME280;24535;45.508;12.252;2022-07-23T01:37:40;101312.28;;;31.18;47.64
38786;BME280;24535;45.508;12.252;2022-07-23T01:40:06;101310.47;;;31.12;48.22
38786;BME280;24535;45.508;12.252;2022-07-23T01:42:32;101299.25;;;31.02;47.90
38786;BME280;24535;45.508;12.252;2022-07-23T01:44:57;101301.59;;;30.98;48.35
38786;BME280;24535;45.508;12.252;2022-07-23T01:47:23;101296.66;;;30.89;48.53
38786;BME280;24535;45.508;12.252;2022-07-23T01:49:49;101293.56;;;30.85;49.19
38786;BME280;24535;45.508;12.252;2022-07-23T01:52:14;101288.56;;;30.82;49.22
38786;BME280;24535;45.508;12.252;2022-07-23T01:54:40;101281.88;;;30.78;49.21
38786;BME280;24535;45.508;12.252;2022-07-23T01:57:06;101279.22;;;30.71;49.25
38786;BME280;24535;45.508;12.252;2022-07-23T01:59:32;101286.09;;;30.74;49.15
38786;BME280;24535;45.508;12.252;2022-07-23T02:01:58;101282.38;;;30.68;49.11
38786;BME280;24535;45.508;12.252;2022-07-23T02:04:24;101288.63;;;30.69;49.21
38786;BME280;24535;45.508;12.252;2022-07-23T02:06:51;101295.97;;;30.68;48.72
38786;BME280;24535;45.508;12.252;2022-07-23T02:09:16;101281.53;;;30.68;48.73
38786;BME280;24535;45.508;12.252;2022-07-23T02:11:42;101300.72;;;30.80;48.78
38786;BME280;24535;45.508;12.252;2022-07-23T02:14:08;101300.66;;;30.86;48.85
38786;BME280;24535;45.508;12.252;2022-07-23T02:16:43;101316.69;;;30.94;48.80
38786;BME280;24535;45.508;12.252;2022-07-23T02:21:39;101307.84;;;30.81;48.59
38786;BME280;24535;45.508;12.252;2022-07-23T02:26:34;101306.84;;;30.68;49.16
38786;BME280;24535;45.508;12.252;2022-07-23T02:29:01;101311.50;;;30.61;48.49
38786;BME280;24535;45.508;12.252;2022-07-23T02:31:28;101316.63;;;30.51;48.72
38786;BME280;24535;45.508;12.252;2022-07-23T02:33:54;101320.84;;;30.47;48.93
38786;BME280;24535;45.508;12.252;2022-07-23T02:36:20;101321.88;;;30.46;49.14
38786;BME280;24535;45.508;12.252;2022-07-23T02:38:46;101338.19;;;30.46;48.67
38786;BME280;24535;45.508;12.252;2022-07-23T02:41:12;101336.28;;;30.46;48.89
38786;BME280;24535;45.508;12.252;2022-07-23T02:43:38;101348.03;;;30.47;48.65
38786;BME280;24535;45.508;12.252;2022-07-23T02:46:03;101349.13;;;30.39;48.66
38786;BME280;24535;45.508;12.252;2022-07-23T02:48:29;101344.97;;;30.30;48.76
38786;BME280;24535;45.508;12.252;2022-07-23T02:50:54;101353.19;;;30.23;48.46
38786;BME280;24535;45.508;12.252;2022-07-23T02:53:22;101342.56;;;30.15;48.68
38786;BME280;24535;45.508;12.252;2022-07-23T02:55:47;101349.28;;;30.06;48.77
38786;BME280;24535;45.508;12.252;2022-07-23T02:58:13;101344.94;;;29.98;48.77
38786;BME280;24535;45.508;12.252;2022-07-23T03:00:41;101347.25;;;29.88;49.05
38786;BME280;24535;45.508;12.252;2022-07-23T03:03:21;101356.03;;;29.90;48.77
38786;BME280;24535;45.508;12.252;2022-07-23T03:05:47;101361.84;;;29.94;48.89
38786;BME280;24535;45.508;12.252;2022-07-23T03:08:13;101367.69;;;30.04;48.94
38786;BME280;24535;45.508;12.252;2022-07-23T03:10:44;101359.09;;;30.07;48.80
38786;BME280;24535;45.508;12.252;2022-07-23T03:13:10;101358.03;;;30.08;48.52
38786;BME280;24535;45.508;12.252;2022-07-23T03:15:35;101347.41;;;30.07;48.41
38786;BME280;24535;45.508;12.252;2022-07-23T03:18:01;101354.06;;;30.11;48.12
38786;BME280;24535;45.508;12.252;2022-07-23T03:20:26;101358.69;;;30.10;48.09
38786;BME280;24535;45.508;12.252;2022-07-23T03:22:52;101346.75;;;30.04;47.88
38786;BME280;24535;45.508;12.252;2022-07-23T03:25:19;101350.72;;;30.02;48.19
38786;BME280;24535;45.508;12.252;2022-07-23T03:27:45;101352.44;;;29.96;48.18
38786;BME280;24535;45.508;12.252;2022-07-23T03:30:11;101353.53;;;29.89;47.98
38786;BME280;24535;45.508;12.252;2022-07-23T03:32:37;101360.25;;;29.86;48.22
38786;BME280;24535;45.508;12.252;2022-07-23T03:35:06;101359.84;;;29.83;48.63
38786;BME280;24535;45.508;12.252;2022-07-23T03:37:31;101365.88;;;29.85;48.41
38786;BME280;24535;45.508;12.252;2022-07-23T03:39:57;101361.50;;;29.84;48.45
38786;BME280;24535;45.508;12.252;2022-07-23T03:42:22;101369.22;;;29.87;48.32
38786;BME280;24535;45.508;12.252;2022-07-23T03:44:48;101372.94;;;29.92;48.09
38786;BME280;24535;45.508;12.252;2022-07-23T03:47:13;101369.81;;;29.89;48.12
38786;BME280;24535;45.508;12.252;2022-07-23T03:49:40;101368.59;;;29.85;47.68
38786;BME280;24535;45.508;12.252;2022-07-23T03:54:34;101362.13;;;29.79;47.89
38786;BME280;24535;45.508;12.252;2022-07-23T03:56:59;101358.38;;;29.73;47.76
38786;BME280;24535;45.508;12.252;2022-07-23T03:59:25;101366.16;;;29.70;47.68
38786;BME280;24535;45.508;12.252;2022-07-23T04:01:50;101368.44;;;29.66;47.57
38786;BME280;24535;45.508;12.252;2022-07-23T04:04:16;101367.41;;;29.61;48.02
38786;BME280;24535;45.508;12.252;2022-07-23T04:06:41;101377.25;;;29.62;47.88
38786;BME280;24535;45.508;12.252;2022-07-23T04:09:07;101368.66;;;29.51;47.54
38786;BME280;24535;45.508;12.252;2022-07-23T04:17:24;101369.06;;;29.48;47.58
38786;BME280;24535;45.508;12.252;2022-07-23T04:19:50;101369.91;;;29.49;47.97
38786;BME280;24535;45.508;12.252;2022-07-23T04:22:16;101374.91;;;29.52;47.97
38786;BME280;24535;45.508;12.252;2022-07-23T04:24:44;101376.19;;;29.63;47.93
38786;BME280;24535;45.508;12.252;2022-07-23T04:27:10;101384.28;;;29.76;47.80
38786;BME280;24535;45.508;12.252;2022-07-23T04:29:35;101388.66;;;29.90;47.73
38786;BME280;24535;45.508;12.252;2022-07-23T04:32:04;101384.00;;;29.97;47.17
38786;BME280;24535;45.508;12.252;2022-07-23T04:34:30;101378.97;;;30.01;46.87
38786;BME280;24535;45.508;12.252;2022-07-23T04:36:55;101367.09;;;29.95;46.98
38786;BME280;24535;45.508;12.252;2022-07-23T04:39:21;101372.34;;;29.90;46.81
38786;BME280;24535;45.508;12.252;2022-07-23T04:42:22;101370.25;;;29.86;47.14
38786;BME280;24535;45.508;12.252;2022-07-23T04:44:47;101376.97;;;29.83;47.01
38786;BME280;24535;45.508;12.252;2022-07-23T04:47:13;101380.94;;;29.80;47.42
38786;BME280;24535;45.508;12.252;2022-07-23T04:49:38;101380.75;;;29.82;47.63
38786;BME280;24535;45.508;12.252;2022-07-23T04:52:04;101385.53;;;29.87;47.53
38786;BME280;24535;45.508;12.252;2022-07-23T04:54:29;101377.78;;;29.90;47.46
38786;BME280;24535;45.508;12.252;2022-07-23T04:59:26;101384.22;;;29.96;47.39
38786;BME280;24535;45.508;12.252;2022-07-23T05:01:51;101383.00;;;29.92;47.89
38786;BME280;24535;45.508;12.252;2022-07-23T05:04:17;101388.00;;;29.95;47.83
38786;BME280;24535;45.508;12.252;2022-07-23T05:06:42;101385.88;;;29.97;47.72
38786;BME280;24535;45.508;12.252;2022-07-23T05:09:08;101387.34;;;29.99;47.83
38786;BME280;24535;45.508;12.252;2022-07-23T05:11:33;101383.56;;;30.00;47.84
38786;BME280;24535;45.508;12.252;2022-07-23T05:13:58;101389.41;;;30.04;48.17
38786;BME280;24535;45.508;12.252;2022-07-23T05:16:24;101379.59;;;30.03;48.10
38786;BME280;24535;45.508;12.252;2022-07-23T05:18:49;101383.13;;;30.10;48.14
38786;BME280;24535;45.508;12.252;2022-07-23T05:21:15;101378.50;;;30.17;48.41
38786;BME280;24535;45.508;12.252;2022-07-23T05:23:42;101390.81;;;30.26;48.54
38786;BME280;24535;45.508;12.252;2022-07-23T05:26:08;101382.84;;;30.32;47.96
38786;BME280;24535;45.508;12.252;2022-07-23T05:28:33;101372.13;;;30.43;48.04
38786;BME280;24535;45.508;12.252;2022-07-23T05:30:59;101376.22;;;30.52;48.31
38786;BME280;24535;45.508;12.252;2022-07-23T05:33:24;101369.69;;;30.60;48.08
38786;BME280;24535;45.508;12.252;2022-07-23T05:35:50;101372.81;;;30.64;48.59
38786;BME280;24535;45.508;12.252;2022-07-23T05:38:15;101372.81;;;30.64;48.23
38786;BME280;24535;45.508;12.252;2022-07-23T05:40:41;101376.38;;;30.64;48.76
38786;BME280;24535;45.508;12.252;2022-07-23T05:43:06;101374.31;;;30.60;48.51
38786;BME280;24535;45.508;12.252;2022-07-23T05:45:32;101374.97;;;30.55;48.84
38786;BME280;24535;45.508;12.252;2022-07-23T05:47:57;101373.09;;;30.56;48.77
38786;BME280;24535;45.508;12.252;2022-07-23T05:50:29;101371.59;;;30.60;48.97
38786;BME280;24535;45.508;12.252;2022-07-23T05:52:54;101375.72;;;30.62;49.30
38786;BME280;24535;45.508;12.252;2022-07-23T05:55:23;101368.63;;;30.61;49.16
38786;BME280;24535;45.508;12.252;2022-07-23T05:57:51;101365.31;;;30.59;49.48
38786;BME280;24535;45.508;12.252;2022-07-23T06:00:17;101366.34;;;30.58;49.60
38786;BME280;24535;45.508;12.252;2022-07-23T06:02:42;101376.19;;;30.59;50.01
38786;BME280;24535;45.508;12.252;2022-07-23T06:05:08;101376.19;;;30.59;50.07
38786;BME280;24535;45.508;12.252;2022-07-23T06:07:40;101376.13;;;30.66;49.27
38786;BME280;24535;45.508;12.252;2022-07-23T06:15:52;101380.53;;;30.98;50.09
38786;BME280;24535;45.508;12.252;2022-07-23T06:18:18;101378.19;;;31.02;49.93
38786;BME280;24535;45.508;12.252;2022-07-23T06:20:49;101381.94;;;31.08;49.97
38786;BME280;24535;45.508;12.252;2022-07-23T06:23:15;101381.25;;;31.12;49.81
38786;BME280;24535;45.508;12.252;2022-07-23T06:25:40;101377.88;;;31.17;50.82
38786;BME280;24535;45.508;12.252;2022-07-23T06:28:06;101382.63;;;31.21;50.76
38786;BME280;24535;45.508;12.252;2022-07-23T06:30:32;101379.22;;;31.26;51.04
38786;BME280;24535;45.508;12.252;2022-07-23T06:32:57;101389.44;;;31.37;50.71
38786;BME280;24535;45.508;12.252;2022-07-23T06:35:23;101378.09;;;31.40;51.00
38786;BME280;24535;45.508;12.252;2022-07-23T06:37:48;101380.06;;;31.51;51.10
38786;BME280;24535;45.508;12.252;2022-07-23T06:40:14;101377.50;;;31.57;50.76
38786;BME280;24535;45.508;12.252;2022-07-23T06:42:39;101381.44;;;31.61;50.82
38786;BME280;24535;45.508;12.252;2022-07-23T06:45:06;101381.19;;;31.62;51.12
38786;BME280;24535;45.508;12.252;2022-07-23T06:47:32;101378.63;;;31.67;51.37
38786;BME280;24535;45.508;12.252;2022-07-23T06:49:58;101392.63;;;31.71;51.58
38786;BME280;24535;45.508;12.252;2022-07-23T06:52:32;101391.34;;;31.73;50.18
38786;BME280;24535;45.508;12.252;2022-07-23T06:55:04;101394.59;;;31.82;49.53
38786;BME280;24535;45.508;12.252;2022-07-23T06:57:30;101404.78;;;31.93;50.00
38786;BME280;24535;45.508;12.252;2022-07-23T06:59:58;101397.13;;;32.02;49.54
38786;BME280;24535;45.508;12.252;2022-07-23T07:02:23;101400.13;;;32.12;49.14
38786;BME280;24535;45.508;12.252;2022-07-23T07:04:55;101401.50;;;32.21;50.12
38786;BME280;24535;45.508;12.252;2022-07-23T07:07:21;101397.84;;;32.28;49.80
38786;BME280;24535;45.508;12.252;2022-07-23T07:09:46;101406.72;;;32.41;50.00
38786;BME280;24535;45.508;12.252;2022-07-23T07:12:12;101406.72;;;32.53;49.45
38786;BME280;24535;45.508;12.252;2022-07-23T07:14:38;101408.09;;;32.62;49.04
38786;BME280;24535;45.508;12.252;2022-07-23T07:17:03;101412.38;;;32.70;50.02
38786;BME280;24535;45.508;12.252;2022-07-23T07:19:29;101410.16;;;32.79;49.35
38786;BME280;24535;45.508;12.252;2022-07-23T07:21:54;101411.34;;;32.83;50.30
38786;BME280;24535;45.508;12.252;2022-07-23T07:24:19;101417.09;;;32.93;49.80
38786;BME280;24535;45.508;12.252;2022-07-23T07:26:45;101416.25;;;32.92;48.82
38786;BME280;24535;45.508;12.252;2022-07-23T07:29:42;101410.09;;;32.97;46.93
38786;BME280;24535;45.508;12.252;2022-07-23T07:32:07;101402.13;;;32.95;47.91
38786;BME280;24535;45.508;12.252;2022-07-23T07:34:32;101404.63;;;32.97;47.69
38786;BME280;24535;45.508;12.252;2022-07-23T07:36:58;101408.19;;;32.97;47.68
38786;BME280;24535;45.508;12.252;2022-07-23T07:39:27;101408.53;;;33.01;47.68
38786;BME280;24535;45.508;12.252;2022-07-23T07:41:52;101402.63;;;33.04;48.03
38786;BME280;24535;45.508;12.252;2022-07-23T07:44:18;101404.88;;;33.07;47.24
38786;BME280;24535;45.508;12.252;2022-07-23T07:46:44;101404.75;;;33.14;46.75
38786;BME280;24535;45.508;12.252;2022-07-23T07:49:09;101397.63;;;33.13;45.96
38786;BME280;24535;45.508;12.252;2022-07-23T07:51:35;101403.81;;;33.20;45.96
38786;BME280;24535;45.508;12.252;2022-07-23T07:54:00;101407.03;;;33.29;45.57
38786;BME280;24535;45.508;12.252;2022-07-23T07:56:29;101409.06;;;33.57;45.51
38786;BME280;24535;45.508;12.252;2022-07-23T07:58:55;101409.03;;;33.92;45.29
38786;BME280;24535;45.508;12.252;2022-07-23T08:07:07;101405.84;;;35.48;42.71
38786;BME280;24535;45.508;12.252;2022-07-23T08:09:42;101407.81;;;35.91;40.87
38786;BME280;24535;45.508;12.252;2022-07-23T08:12:08;101416.22;;;36.29;41.22
38786;BME280;24535;45.508;12.252;2022-07-23T08:14:40;101410.84;;;36.66;39.70
38786;BME280;24535;45.508;12.252;2022-07-23T08:17:11;101418.09;;;37.04;38.38
38786;BME280;24535;45.508;12.252;2022-07-23T08:19:40;101403.78;;;37.40;37.75
38786;BME280;24535;45.508;12.252;2022-07-23T08:22:05;101411.97;;;37.77;36.82
38786;BME280;24535;45.508;12.252;2022-07-23T08:24:31;101404.94;;;38.06;36.33
38786;BME280;24535;45.508;12.252;2022-07-23T08:26:59;101409.72;;;38.37;35.57
38786;BME280;24535;45.508;12.252;2022-07-23T08:29:24;101405.91;;;38.58;35.14
38786;BME280;24535;45.508;12.252;2022-07-23T08:31:55;101392.97;;;38.64;34.01
38786;BME280;24535;45.508;12.252;2022-07-23T08:34:27;101395.72;;;38.69;33.69
38786;BME280;24535;45.508;12.252;2022-07-23T08:40:13;101404.25;;;38.47;34.51
38786;BME280;24535;45.508;12.252;2022-07-23T08:42:51;101399.81;;;38.36;33.61
38786;BME280;24535;45.508;12.252;2022-07-23T08:45:22;101407.22;;;38.30;33.77
38786;BME280;24535;45.508;12.252;2022-07-23T08:50:29;101405.00;;;38.17;32.75
38786;BME280;24535;45.508;12.252;2022-07-23T08:52:54;101411.03;;;38.14;33.14
38786;BME280;24535;45.508;12.252;2022-07-23T08:55:28;101402.47;;;38.05;32.67
38786;BME280;24535;45.508;12.252;2022-07-23T08:58:00;101406.00;;;37.90;31.90
38786;BME280;24535;45.508;12.252;2022-07-23T09:00:25;101401.78;;;37.77;32.68
38786;BME280;24535;45.508;12.252;2022-07-23T09:02:51;101405.81;;;37.59;33.74
38786;BME280;24535;45.508;12.252;2022-07-23T09:05:20;101402.44;;;37.42;33.59
38786;BME280;24535;45.508;12.252;2022-07-23T09:11:11;101408.88;;;37.21;33.23
38786;BME280;24535;45.508;12.252;2022-07-23T09:18:50;101403.44;;;36.94;33.11
38786;BME280;24535;45.508;12.252;2022-07-23T09:24:16;101394.91;;;36.63;33.96
38786;BME280;24535;45.508;12.252;2022-07-23T09:26:44;101398.19;;;36.60;33.54
38786;BME280;24535;45.508;12.252;2022-07-23T09:31:58;101400.44;;;36.41;33.66
38786;BME280;24535;45.508;12.252;2022-07-23T09:36:58;101401.97;;;36.32;33.82
38786;BME280;24535;45.508;12.252;2022-07-23T09:39:32;101409.34;;;36.26;33.83
38786;BME280;24535;45.508;12.252;2022-07-23T09:42:13;101398.56;;;36.20;33.27
38786;BME280;24535;45.508;12.252;2022-07-23T09:44:52;101409.53;;;36.20;33.82
38786;BME280;24535;45.508;12.252;2022-07-23T09:47:19;101410.00;;;36.11;34.24
38786;BME280;24535;45.508;12.252;2022-07-23T09:50:01;101409.63;;;36.03;33.37
38786;BME280;24535;45.508;12.252;2022-07-23T09:52:32;101401.53;;;35.96;33.76
38786;BME280;24535;45.508;12.252;2022-07-23T09:54:59;101400.16;;;35.94;34.42
38786;BME280;24535;45.508;12.252;2022-07-23T09:57:29;101396.78;;;35.86;34.25
38786;BME280;24535;45.508;12.252;2022-07-23T10:02:28;101392.94;;;35.65;33.69
38786;BME280;24535;45.508;12.252;2022-07-23T10:05:15;101389.28;;;35.60;34.34
38786;BME280;24535;45.508;12.252;2022-07-23T10:07:42;101386.22;;;35.56;34.43
38786;BME280;24535;45.508;12.252;2022-07-23T10:10:09;101393.81;;;35.49;33.23
38786;BME280;24535;45.508;12.252;2022-07-23T10:12:43;101380.75;;;35.39;33.23
38786;BME280;24535;45.508;12.252;2022-07-23T10:15:31;101384.84;;;35.37;33.26
38786;BME280;24535;45.508;12.252;2022-07-23T10:18:00;101379.94;;;35.39;32.82
38786;BME280;24535;45.508;12.252;2022-07-23T10:20:26;101386.66;;;35.48;32.25
38786;BME280;24535;45.508;12.252;2022-07-23T10:23:17;101380.31;;;35.48;32.27
38786;BME280;24535;45.508;12.252;2022-07-23T10:25:51;101369.16;;;35.49;31.16
38786;BME280;24535;45.508;12.252;2022-07-23T10:28:41;101374.19;;;35.57;30.57
38786;BME280;24535;45.508;12.252;2022-07-23T10:36:59;101376.66;;;35.59;31.45
38786;BME280;24535;45.508;12.252;2022-07-23T10:39:40;101363.66;;;35.49;31.47
38786;BME280;24535;45.508;12.252;2022-07-23T10:42:14;101360.66;;;35.51;31.20
38786;BME280;24535;45.508;12.252;2022-07-23T10:44:48;101369.22;;;35.54;31.40
38786;BME280;24535;45.508;12.252;2022-07-23T10:47:32;101359.16;;;35.43;31.12
38786;BME280;24535;45.508;12.252;2022-07-23T10:50:29;101360.47;;;35.40;31.78
38786;BME280;24535;45.508;12.252;2022-07-23T10:53:10;101350.59;;;35.39;32.23
38786;BME280;24535;45.508;12.252;2022-07-23T10:55:45;101351.84;;;35.32;32.56
38786;BME280;24535;45.508;12.252;2022-07-23T10:58:17;101344.66;;;35.26;32.02
38786;BME280;24535;45.508;12.252;2022-07-23T11:00:43;101350.06;;;35.21;32.48
38786;BME280;24535;45.508;12.252;2022-07-23T11:03:32;101336.63;;;35.19;33.09
38786;BME280;24535;45.508;12.252;2022-07-23T11:05:58;101336.78;;;35.12;33.09
38786;BME280;24535;45.508;12.252;2022-07-23T11:08:30;101335.72;;;35.13;33.01
38786;BME280;24535;45.508;12.252;2022-07-23T11:13:46;101332.22;;;35.18;33.43
38786;BME280;24535;45.508;12.252;2022-07-23T11:18:58;101330.19;;;35.30;33.12
38786;BME280;24535;45.508;12.252;2022-07-23T11:24:07;101334.16;;;35.39;33.59
38786;BME280;24535;45.508;12.252;2022-07-23T11:26:58;101328.34;;;35.36;33.26
38786;BME280;24535;45.508;12.252;2022-07-23T11:34:45;101328.78;;;35.28;34.37
38786;BME280;24535;45.508;12.252;2022-07-23T11:40:00;101315.69;;;35.30;34.39
38786;BME280;24535;45.508;12.252;2022-07-23T11:42:26;101320.13;;;35.36;34.08
38786;BME280;24535;45.508;12.252;2022-07-23T11:44:52;101323.47;;;35.38;34.00
38786;BME280;24535;45.508;12.252;2022-07-23T11:47:25;101315.28;;;35.43;34.13
38786;BME280;24535;45.508;12.252;2022-07-23T11:56:12;101315.59;;;35.63;33.38
38786;BME280;24535;45.508;12.252;2022-07-23T11:58:38;101310.53;;;35.55;33.43
38786;BME280;24535;45.508;12.252;2022-07-23T12:01:10;101314.06;;;35.51;33.86
38786;BME280;24535;45.508;12.252;2022-07-23T12:03:36;101301.91;;;35.47;34.10
38786;BME280;24535;45.508;12.252;2022-07-23T12:06:02;101307.41;;;35.47;33.04
38786;BME280;24535;45.508;12.252;2022-07-23T12:08:27;101303.91;;;35.51;33.16
38786;BME280;24535;45.508;12.252;2022-07-23T12:10:53;101303.97;;;35.56;33.23
38786;BME280;24535;45.508;12.252;2022-07-23T12:13:20;101300.41;;;35.56;33.01
38786;BME280;24535;45.508;12.252;2022-07-23T12:15:53;101300.41;;;35.56;33.39
38786;BME280;24535;45.508;12.252;2022-07-23T12:18:31;101292.88;;;35.46;33.53
38786;BME280;24535;45.508;12.252;2022-07-23T12:20:57;101291.94;;;35.40;33.41
38786;BME280;24535;45.508;12.252;2022-07-23T12:23:32;101287.50;;;35.34;33.09
38786;BME280;24535;45.508;12.252;2022-07-23T12:26:01;101291.66;;;35.37;33.71
38786;BME280;24535;45.508;12.252;2022-07-23T12:28:28;101289.97;;;35.36;33.87
38786;BME280;24535;45.508;12.252;2022-07-23T12:30:56;101288.81;;;35.32;34.31
38786;BME280;24535;45.508;12.252;2022-07-23T12:38:59;101286.97;;;35.15;34.66
38786;BME280;24535;45.508;12.252;2022-07-23T12:41:27;101286.41;;;35.13;34.58
38786;BME280;24535;45.508;12.252;2022-07-23T12:44:22;101277.91;;;35.15;34.36
38786;BME280;24535;45.508;12.252;2022-07-23T12:46:52;101278.31;;;35.24;34.68
38786;BME280;24535;45.508;12.252;2022-07-23T12:49:27;101280.59;;;35.32;34.25
38786;BME280;24535;45.508;12.252;2022-07-23T12:51:53;101281.44;;;35.32;34.37
38786;BME280;24535;45.508;12.252;2022-07-23T12:54:27;101282.47;;;35.26;34.68
38786;BME280;24535;45.508;12.252;2022-07-23T12:56:53;101278.31;;;35.24;35.44
38786;BME280;24535;45.508;12.252;2022-07-23T12:59:21;101270.84;;;35.19;35.51
38786;BME280;24535;45.508;12.252;2022-07-23T13:01:56;101275.25;;;35.20;35.73
38786;BME280;24535;45.508;12.252;2022-07-23T13:04:25;101276.34;;;35.19;36.03
38786;BME280;24535;45.508;12.252;2022-07-23T13:06:55;101269.16;;;35.13;36.13
38786;BME280;24535;45.508;12.252;2022-07-23T13:09:23;101268.81;;;35.09;36.44
38786;BME280;24535;45.508;12.252;2022-07-23T13:11:54;101270.72;;;35.09;36.65
38786;BME280;24535;45.508;12.252;2022-07-23T13:14:21;101264.84;;;35.00;37.12
38786;BME280;24535;45.508;12.252;2022-07-23T13:16:48;101264.50;;;34.97;36.91
38786;BME280;24535;45.508;12.252;2022-07-23T13:19:21;101262.50;;;34.92;36.92
38786;BME280;24535;45.508;12.252;2022-07-23T13:21:47;101253.13;;;34.88;36.64
38786;BME280;24535;45.508;12.252;2022-07-23T13:24:13;101257.22;;;34.85;37.21
38786;BME280;24535;45.508;12.252;2022-07-23T13:26:48;101266.00;;;34.87;36.61
38786;BME280;24535;45.508;12.252;2022-07-23T13:31:52;101243.25;;;34.87;36.24
38786;BME280;24535;45.508;12.252;2022-07-23T13:34:25;101245.50;;;34.90;36.06
38786;BME280;24535;45.508;12.252;2022-07-23T13:36:51;101243.84;;;34.89;35.81
38786;BME280;24535;45.508;12.252;2022-07-23T13:39:16;101244.75;;;34.94;35.48
38786;BME280;24535;45.508;12.252;2022-07-23T13:41:45;101241.72;;;34.96;35.91
38786;BME280;24535;45.508;12.252;2022-07-23T13:44:10;101235.69;;;34.94;36.33
38786;BME280;24535;45.508;12.252;2022-07-23T13:46:36;101236.19;;;34.91;35.34
38786;BME280;24535;45.508;12.252;2022-07-23T14:30:22;101215.94;;;34.92;35.53
38786;BME280;24535;45.508;12.252;2022-07-23T14:32:49;101214.97;;;34.98;35.70
38786;BME280;24535;45.508;12.252;2022-07-23T14:35:17;101206.41;;;34.94;35.94
38786;BME280;24535;45.508;12.252;2022-07-23T14:37:44;101205.25;;;34.90;35.84
38786;BME280;24535;45.508;12.252;2022-07-23T14:40:09;101199.22;;;34.88;35.99
38786;BME280;24535;45.508;12.252;2022-07-23T14:42:38;101199.44;;;34.87;36.20
38786;BME280;24535;45.508;12.252;2022-07-23T14:45:07;101184.59;;;34.83;35.71
38786;BME280;24535;45.508;12.252;2022-07-23T14:47:32;101187.34;;;34.83;36.30
38786;BME280;24535;45.508;12.252;2022-07-23T14:49:58;101187.09;;;34.84;36.16
38786;BME280;24535;45.508;12.252;2022-07-23T14:52:23;101170.84;;;34.78;34.97
38786;BME280;24535;45.508;12.252;2022-07-23T14:54:49;101171.66;;;34.78;35.05
38786;BME280;24535;45.508;12.252;2022-07-23T14:57:14;101173.66;;;34.83;35.47
38786;BME280;24535;45.508;12.252;2022-07-23T14:59:40;101174.47;;;34.83;35.28